Time;durP1;ratioP1;P1;durP2;ratioP2;P2;SDS_P1;SDS_P2;PMS_P1;PMS_P2;Temp;Humidity;BMP_temperature;BMP_pressure;BME280_temperature;BME280_humidity;BME280_pressure;Samples;Min_cycle;Max_cycle;Signal;HPM_P1;HPM_P2
2023/09/13 00:00:31;;;;;;;11.15;2.45;;;18.80;99.90;;;;;;5059585;28;20045;-88
2023/09/13 00:02:59;;;;;;;10.70;2.25;;;18.80;99.90;;;;;;5030796;28;20055;-85
2023/09/13 00:05:25;;;;;;;8.40;1.55;;;18.80;99.90;;;;;;5037800;28;20041;-86
2023/09/13 00:07:53;;;;;;;10.40;2.03;;;18.70;99.90;;;;;;5030154;28;20086;-85
2023/09/13 00:10:25;;;;;;;5.28;1.90;;;18.70;99.90;;;;;;5051555;28;20037;-87
2023/09/13 00:12:50;;;;;;;4.28;1.85;;;18.80;99.90;;;;;;5020382;28;20082;-89
2023/09/13 00:15:16;;;;;;;9.63;1.98;;;18.70;99.90;;;;;;5025663;28;20036;-90
2023/09/13 00:17:42;;;;;;;5.50;1.65;;;18.70;99.90;;;;;;5025812;28;20052;-89
2023/09/13 00:20:13;;;;;;;10.75;2.22;;;18.70;99.90;;;;;;5029713;28;20051;-86
2023/09/13 00:22:40;;;;;;;7.32;1.75;;;18.70;99.90;;;;;;5013959;28;20099;-86
2023/09/13 00:25:06;;;;;;;7.93;1.85;;;18.70;99.90;;;;;;5053749;28;20045;-93
2023/09/13 00:27:32;;;;;;;6.97;1.92;;;18.70;99.90;;;;;;5032489;28;20104;-89
2023/09/13 00:29:58;;;;;;;7.88;1.75;;;18.70;99.90;;;;;;5043870;28;20130;-91
2023/09/13 00:32:35;;;;;;;10.40;1.98;;;18.70;99.90;;;;;;5043277;28;20054;-86
2023/09/13 00:35:01;;;;;;;7.32;1.73;;;18.70;99.90;;;;;;5037320;28;20045;-86
2023/09/13 00:37:28;;;;;;;6.40;1.50;;;18.60;99.90;;;;;;5034371;28;20049;-90
2023/09/13 00:39:53;;;;;;;6.20;1.75;;;18.10;99.90;;;;;;5044691;28;20046;-93
2023/09/13 00:42:20;;;;;;;6.85;1.90;;;18.60;99.90;;;;;;5021392;28;20099;-86
2023/09/13 00:44:56;;;;;;;4.28;1.70;;;18.70;99.90;;;;;;5036280;28;20461;-88
2023/09/13 00:47:22;;;;;;;6.65;1.80;;;18.60;99.90;;;;;;5034017;23;20077;-87
2023/09/13 00:49:49;;;;;;;5.50;1.40;;;18.50;99.90;;;;;;5006577;28;20058;-86
2023/09/13 00:52:16;;;;;;;8.05;1.70;;;18.60;99.90;;;;;;5047616;22;20064;-87
2023/09/13 00:54:44;;;;;;;7.68;1.63;;;18.40;99.90;;;;;;5065866;28;20063;-87
2023/09/13 00:57:11;;;;;;;8.25;1.73;;;18.40;99.90;;;;;;5084113;22;20049;-87
2023/09/13 00:59:50;;;;;;;5.85;1.65;;;18.40;99.90;;;;;;5053783;28;20052;-86
2023/09/13 01:02:18;;;;;;;10.00;1.83;;;18.40;99.90;;;;;;5048482;28;20060;-90
2023/09/13 01:04:44;;;;;;;6.28;1.40;;;18.40;99.90;;;;;;5022806;28;20523;-93
2023/09/13 01:07:11;;;;;;;9.52;2.35;;;18.60;99.90;;;;;;5018236;28;20081;-91
2023/09/13 01:09:36;;;;;;;7.00;1.30;;;18.30;99.90;;;;;;5021255;28;20069;-89
2023/09/13 01:12:04;;;;;;;9.85;1.63;;;18.20;99.90;;;;;;5026656;28;20060;-86
2023/09/13 01:14:46;;;;;;;6.95;1.23;;;18.30;99.90;;;;;;5029256;28;20057;-86
2023/09/13 01:17:16;;;;;;;8.18;1.33;;;18.30;99.90;;;;;;5020301;28;20046;-86
2023/09/13 01:20:10;;;;;;;4.50;1.10;;;18.30;99.90;;;;;;5004863;28;20057;-86
2023/09/13 01:23:08;;;;;;;5.70;1.35;;;18.20;99.90;;;;;;5033907;28;20041;-86
2023/09/13 01:26:07;;;;;;;6.90;1.70;;;18.20;99.90;;;;;;5042834;28;20076;-86
2023/09/13 01:28:46;;;;;;;6.57;1.40;;;18.10;99.90;;;;;;5057162;28;20052;-85
2023/09/13 01:31:17;;;;;;;5.35;1.13;;;18.10;99.90;;;;;;5039728;28;20049;-86
2023/09/13 01:33:51;;;;;;;7.00;1.50;;;18.10;99.90;;;;;;5033124;28;20083;-86
2023/09/13 01:36:17;;;;;;;7.60;1.20;;;18.10;99.90;;;;;;5031800;28;20061;-86
2023/09/13 01:38:43;;;;;;;8.70;1.35;;;18.00;99.90;;;;;;5034463;28;20524;-85
2023/09/13 01:41:44;;;;;;;4.07;1.20;;;18.00;99.90;;;;;;5027865;28;20046;-86
2023/09/13 01:44:14;;;;;;;4.05;1.23;;;18.00;99.90;;;;;;5029702;28;20140;-85
2023/09/13 01:46:45;;;;;;;8.15;1.83;;;17.90;99.90;;;;;;5051121;28;20052;-85
2023/09/13 01:49:27;;;;;;;6.22;1.55;;;17.90;99.90;;;;;;5035607;28;20394;-85
2023/09/13 01:52:05;;;;;;;8.70;2.17;;;17.90;99.90;;;;;;5036229;28;20084;-86
2023/09/13 01:54:36;;;;;;;5.97;1.70;;;17.80;99.90;;;;;;5021237;28;20091;-86
2023/09/13 01:57:02;;;;;;;8.60;1.40;;;18.30;99.90;;;;;;5022081;28;20061;-87
2023/09/13 01:59:28;;;;;;;14.90;1.58;;;17.80;99.90;;;;;;5045497;28;20061;-85
2023/09/13 02:01:54;;;;;;;6.47;1.25;;;17.70;99.90;;;;;;5054790;28;20041;-85
2023/09/13 02:04:20;;;;;;;7.45;1.50;;;17.90;99.90;;;;;;5027753;28;20504;-85
2023/09/13 02:06:45;;;;;;;7.35;2.00;;;17.70;99.90;;;;;;5031075;28;20048;-85
2023/09/13 02:09:11;;;;;;;6.22;1.92;;;17.70;99.90;;;;;;5021801;28;20081;-86
2023/09/13 02:11:37;;;;;;;7.45;1.35;;;18.20;99.90;;;;;;5024513;28;20078;-86
2023/09/13 02:14:02;;;;;;;5.68;1.02;;;17.60;99.90;;;;;;5029859;28;20044;-91
2023/09/13 02:16:29;;;;;;;5.57;1.00;;;17.60;99.90;;;;;;5033635;28;20136;-87
2023/09/13 02:18:55;;;;;;;4.07;1.25;;;17.60;99.90;;;;;;4962304;28;20069;-87
2023/09/13 02:21:21;;;;;;;7.15;1.58;;;17.60;99.90;;;;;;4993697;28;20133;-88
2023/09/13 02:23:47;;;;;;;9.95;1.67;;;17.50;99.90;;;;;;4988530;28;20394;-88
2023/09/13 02:26:22;;;;;;;6.53;1.20;;;17.80;99.90;;;;;;5004001;28;20110;-88
2023/09/13 02:28:52;;;;;;;5.90;1.20;;;17.90;99.90;;;;;;4986715;28;20079;-85
2023/09/13 02:31:36;;;;;;;5.10;1.20;;;17.50;99.90;;;;;;5007379;23;20054;-85
2023/09/13 02:34:03;;;;;;;7.13;1.63;;;17.50;99.90;;;;;;5022929;22;20054;-85
2023/09/13 02:36:31;;;;;;;5.32;1.00;;;17.40;99.90;;;;;;5016064;28;20058;-85
2023/09/13 02:38:59;;;;;;;10.32;1.70;;;17.50;99.90;;;;;;5017007;28;20046;-86
2023/09/13 02:41:24;;;;;;;4.68;1.45;;;17.50;99.90;;;;;;5015259;28;20075;-86
2023/09/13 02:43:50;;;;;;;9.07;1.45;;;17.70;99.90;;;;;;4991355;28;20149;-89
2023/09/13 02:46:17;;;;;;;4.95;0.95;;;17.50;99.90;;;;;;5014995;28;20050;-87
2023/09/13 02:48:55;;;;;;;6.22;1.17;;;17.50;99.90;;;;;;5042661;22;20544;-85
2023/09/13 02:51:21;;;;;;;4.22;1.05;;;17.40;99.90;;;;;;5048721;28;20500;-85
2023/09/13 02:53:46;;;;;;;7.25;1.30;;;17.50;99.90;;;;;;5026338;28;20056;-87
2023/09/13 02:56:12;;;;;;;7.25;1.63;;;17.40;99.90;;;;;;5053255;28;20844;-86
2023/09/13 02:58:39;;;;;;;5.10;1.15;;;17.40;99.90;;;;;;5041411;28;20045;-85
2023/09/13 03:01:10;;;;;;;8.88;1.25;;;17.40;99.90;;;;;;5045392;28;20436;-91
2023/09/13 03:03:36;;;;;;;8.00;1.40;;;17.40;99.90;;;;;;5055366;28;20037;-86
2023/09/13 03:06:11;;;;;;;3.47;0.98;;;17.60;99.90;;;;;;5045841;28;20485;-87
2023/09/13 03:08:37;;;;;;;9.25;1.25;;;17.40;99.90;;;;;;5042884;28;20040;-88
2023/09/13 03:11:10;;;;;;;5.32;1.20;;;17.40;99.90;;;;;;5043379;28;20053;-86
2023/09/13 03:13:36;;;;;;;8.75;1.70;;;17.40;99.90;;;;;;5043852;28;20077;-86
2023/09/13 03:16:09;;;;;;;5.78;1.13;;;17.40;99.90;;;;;;5047788;28;20401;-90
2023/09/13 03:18:36;;;;;;;4.68;1.20;;;17.40;99.90;;;;;;5045229;28;20044;-85
2023/09/13 03:21:02;;;;;;;3.13;1.10;;;17.40;99.90;;;;;;5053730;28;20096;-88
2023/09/13 03:23:31;;;;;;;4.63;1.40;;;17.30;99.90;;;;;;5048610;28;20076;-85
2023/09/13 03:25:59;;;;;;;4.40;1.13;;;17.30;99.90;;;;;;5049071;28;20068;-86
2023/09/13 03:28:28;;;;;;;11.48;2.05;;;17.30;99.90;;;;;;5049914;28;20078;-85
2023/09/13 03:30:59;;;;;;;5.20;1.40;;;17.30;99.90;;;;;;5050045;28;20042;-85
2023/09/13 03:33:24;;;;;;;4.30;1.13;;;17.30;99.90;;;;;;5049699;28;20052;-85
2023/09/13 03:35:56;;;;;;;8.23;1.88;;;17.60;99.90;;;;;;5053059;28;20100;-85
2023/09/13 03:38:25;;;;;;;4.10;1.15;;;17.30;99.90;;;;;;5044512;22;20072;-86
2023/09/13 03:40:50;;;;;;;5.25;1.30;;;17.30;99.90;;;;;;5024527;28;20417;-92
2023/09/13 03:43:19;;;;;;;10.10;1.50;;;17.30;99.90;;;;;;5024882;28;20054;-85
2023/09/13 03:45:45;;;;;;;7.85;1.48;;;17.20;99.90;;;;;;5011761;28;20041;-86
2023/09/13 03:48:14;;;;;;;8.88;1.75;;;17.30;99.90;;;;;;5030427;28;20041;-86
2023/09/13 03:50:40;;;;;;;6.82;1.58;;;17.20;99.90;;;;;;5042766;28;20033;-89
2023/09/13 03:53:06;;;;;;;12.63;1.27;;;17.20;99.90;;;;;;5031270;28;20520;-86
2023/09/13 03:55:33;;;;;;;11.10;2.22;;;17.50;99.90;;;;;;5030453;28;20041;-86
2023/09/13 03:58:00;;;;;;;7.97;1.77;;;17.10;99.90;;;;;;5031495;28;20046;-86
2023/09/13 04:00:29;;;;;;;9.77;1.77;;;17.10;99.90;;;;;;5032764;28;20088;-87
2023/09/13 04:02:55;;;;;;;6.05;1.27;;;17.10;99.90;;;;;;5044823;28;20037;-89
2023/09/13 04:05:22;;;;;;;4.78;1.10;;;18.00;99.90;;;;;;5023297;28;20105;-89
2023/09/13 04:07:47;;;;;;;7.15;1.38;;;17.10;99.90;;;;;;5038033;28;20038;-93
2023/09/13 04:10:13;;;;;;;8.43;1.58;;;17.40;99.90;;;;;;5034015;28;20049;-89
2023/09/13 04:12:39;;;;;;;10.13;2.00;;;16.60;99.90;;;;;;5020131;28;20049;-92
2023/09/13 04:15:05;;;;;;;6.60;1.45;;;16.90;99.90;;;;;;5018179;28;20379;-91
2023/09/13 04:17:31;;;;;;;9.30;1.58;;;16.80;99.90;;;;;;5021549;28;20133;-92
2023/09/13 04:19:56;;;;;;;9.70;1.75;;;16.80;99.90;;;;;;5024867;28;20112;-88
2023/09/13 04:22:22;;;;;;;4.63;1.33;;;16.80;99.90;;;;;;5045281;28;20076;-86
2023/09/13 04:24:47;;;;;;;9.40;1.85;;;16.10;99.90;;;;;;5025747;28;20052;-85
2023/09/13 04:27:21;;;;;;;7.53;1.77;;;17.90;99.90;;;;;;5023555;28;20129;-84
2023/09/13 04:29:46;;;;;;;9.57;1.90;;;16.60;99.90;;;;;;5012409;28;20434;-88
2023/09/13 04:32:12;;;;;;;7.78;1.63;;;16.60;99.90;;;;;;5020082;28;20057;-93
2023/09/13 04:34:38;;;;;;;7.05;1.75;;;16.60;99.90;;;;;;5020503;28;20038;-89
2023/09/13 04:37:05;;;;;;;6.22;1.58;;;16.90;99.90;;;;;;5004997;28;20053;-87
2023/09/13 04:39:31;;;;;;;8.43;2.05;;;16.50;99.90;;;;;;5021732;28;20556;-88
2023/09/13 04:42:00;;;;;;;9.02;4.82;;;16.50;99.90;;;;;;5018829;28;20046;-86
2023/09/13 04:44:26;;;;;;;12.38;6.88;;;16.40;99.90;;;;;;5019186;28;20096;-84
2023/09/13 04:46:53;;;;;;;6.07;1.98;;;16.40;99.90;;;;;;5018162;28;20049;-86
2023/09/13 04:49:19;;;;;;;5.43;1.73;;;16.40;99.90;;;;;;5018311;28;20133;-85
2023/09/13 04:51:44;;;;;;;5.97;1.40;;;16.50;99.90;;;;;;5021125;28;20045;-83
2023/09/13 04:54:10;;;;;;;2.95;1.23;;;16.40;99.90;;;;;;5028326;28;20048;-89
2023/09/13 04:56:37;;;;;;;8.35;1.92;;;16.30;99.90;;;;;;5008022;28;20038;-89
2023/09/13 04:59:04;;;;;;;5.07;1.60;;;16.30;99.90;;;;;;5022891;28;20482;-92
2023/09/13 05:01:30;;;;;;;8.82;2.33;;;16.20;99.90;;;;;;5023960;28;20044;-93
2023/09/13 05:03:56;;;;;;;14.70;2.15;;;16.10;99.90;;;;;;5025393;28;20547;-88
2023/09/13 05:06:22;;;;;;;9.25;1.98;;;16.10;99.90;;;;;;5026401;28;20527;-90
2023/09/13 05:08:50;;;;;;;9.55;1.98;;;16.10;99.90;;;;;;5028609;28;20046;-94
2023/09/13 05:11:16;;;;;;;34.88;24.42;;;16.00;99.90;;;;;;5027951;28;20045;-94
2023/09/13 05:13:47;;;;;;;12.38;6.65;;;16.50;99.90;;;;;;5026127;28;20041;-91
2023/09/13 05:16:19;;;;;;;8.10;2.17;;;15.90;99.90;;;;;;5023304;28;20494;-92
2023/09/13 05:18:50;;;;;;;5.43;1.80;;;16.60;99.90;;;;;;5022568;28;20042;-87
2023/09/13 05:21:16;;;;;;;9.55;2.55;;;15.90;99.90;;;;;;5023742;28;20038;-89
2023/09/13 05:23:42;;;;;;;11.40;2.58;;;15.90;99.90;;;;;;5025401;28;20042;-86
2023/09/13 05:26:07;;;;;;;5.90;1.85;;;15.90;99.90;;;;;;5029368;28;20557;-83
2023/09/13 05:28:33;;;;;;;7.72;2.00;;;15.80;99.90;;;;;;5016270;28;20069;-86
2023/09/13 05:31:00;;;;;;;9.63;2.33;;;15.80;99.90;;;;;;5024591;28;20486;-86
2023/09/13 05:33:26;;;;;;;7.97;2.33;;;15.90;99.90;;;;;;5032411;28;20046;-88
2023/09/13 05:35:52;;;;;;;5.90;1.80;;;15.90;99.90;;;;;;5035290;28;20062;-85
2023/09/13 05:38:20;;;;;;;5.95;1.67;;;15.70;99.90;;;;;;5028988;28;20058;-87
2023/09/13 05:40:46;;;;;;;11.50;1.45;;;15.70;99.90;;;;;;5041063;28;20494;-89
2023/09/13 05:43:12;;;;;;;11.98;2.47;;;15.60;99.90;;;;;;5025312;28;20056;-93
2023/09/13 05:45:37;;;;;;;7.65;2.22;;;15.60;99.90;;;;;;5024725;28;20533;-87
2023/09/13 05:48:04;;;;;;;5.45;1.65;;;14.60;99.90;;;;;;5022543;28;20038;-93
2023/09/13 05:50:30;;;;;;;8.85;1.88;;;15.50;99.90;;;;;;5024416;28;20119;-89
2023/09/13 05:52:55;;;;;;;6.45;1.83;;;16.50;99.90;;;;;;5026037;28;20090;-88
2023/09/13 05:55:24;;;;;;;6.85;1.50;;;15.50;99.90;;;;;;5027397;28;20038;-85
2023/09/13 05:57:52;;;;;;;4.45;1.92;;;15.40;99.90;;;;;;5034618;28;20172;-83
2023/09/13 06:00:19;;;;;;;4.18;1.67;;;15.40;99.90;;;;;;5036063;28;20061;-85
2023/09/13 06:02:49;;;;;;;6.18;2.08;;;15.40;99.90;;;;;;5027738;28;20100;-83
2023/09/13 06:05:15;;;;;;;6.38;2.30;;;15.90;99.90;;;;;;5034926;28;20038;-83
2023/09/13 06:07:42;;;;;;;6.13;1.98;;;15.30;99.90;;;;;;5027578;28;20052;-85
2023/09/13 06:10:08;;;;;;;9.82;2.38;;;15.30;99.90;;;;;;5015407;28;20564;-89
2023/09/13 06:12:33;;;;;;;9.20;2.40;;;15.30;99.90;;;;;;5026857;28;20125;-85
2023/09/13 06:14:59;;;;;;;9.88;2.55;;;15.30;99.90;;;;;;5021650;28;20335;-88
2023/09/13 06:17:25;;;;;;;12.23;2.63;;;15.30;99.90;;;;;;5033290;28;20056;-92
2023/09/13 06:19:51;;;;;;;12.32;3.08;;;13.70;99.90;;;;;;5023317;28;20053;-94
2023/09/13 06:22:17;;;;;;;11.40;2.80;;;15.30;99.90;;;;;;5003027;28;20126;-86
2023/09/13 06:24:44;;;;;;;17.23;3.10;;;15.20;99.90;;;;;;5023512;28;20042;-92
2023/09/13 06:27:10;;;;;;;14.35;2.92;;;15.20;99.90;;;;;;5025112;28;20099;-87
2023/09/13 06:29:35;;;;;;;15.88;3.10;;;16.30;99.90;;;;;;5036263;28;20042;-88
2023/09/13 06:32:04;;;;;;;10.85;3.30;;;16.10;99.90;;;;;;5028221;28;20048;-88
2023/09/13 06:34:30;;;;;;;7.85;2.85;;;15.20;99.90;;;;;;5020263;28;20042;-84
2023/09/13 06:36:56;;;;;;;9.05;2.42;;;15.20;99.90;;;;;;5027038;28;20140;-85
2023/09/13 06:39:22;;;;;;;11.60;3.38;;;15.10;99.90;;;;;;5028897;28;20101;-87
2023/09/13 06:41:47;;;;;;;10.23;2.97;;;15.10;99.90;;;;;;5025186;28;20041;-87
2023/09/13 06:44:14;;;;;;;14.05;3.03;;;16.50;99.90;;;;;;5024620;28;20095;-91
2023/09/13 06:46:41;;;;;;;17.60;3.55;;;15.10;99.90;;;;;;5024666;28;20037;-91
2023/09/13 06:49:07;;;;;;;13.48;3.13;;;15.00;99.90;;;;;;5022116;28;20053;-88
2023/09/13 06:51:32;;;;;;;14.55;2.85;;;15.10;99.90;;;;;;5021294;28;20068;-88
2023/09/13 06:53:58;;;;;;;14.35;3.67;;;15.00;99.90;;;;;;5027188;28;20190;-93
2023/09/13 06:56:25;;;;;;;10.32;2.95;;;15.00;99.90;;;;;;5025780;28;20445;-89
2023/09/13 06:58:50;;;;;;;14.40;3.13;;;15.10;99.90;;;;;;5024721;28;20213;-91
2023/09/13 07:01:16;;;;;;;16.25;2.80;;;15.10;99.90;;;;;;5022766;28;20041;-95
2023/09/13 07:03:42;;;;;;;15.05;3.15;;;15.10;99.90;;;;;;5016231;28;20049;-90
2023/09/13 07:06:07;;;;;;;11.57;2.67;;;15.10;99.90;;;;;;5024488;28;20116;-88
2023/09/13 07:08:33;;;;;;;11.77;2.88;;;15.50;99.90;;;;;;5007619;28;20049;-92
2023/09/13 07:10:59;;;;;;;14.52;2.50;;;15.10;99.90;;;;;;5021514;28;20034;-86
2023/09/13 07:13:25;;;;;;;11.52;2.25;;;15.40;99.90;;;;;;5020748;28;20092;-90
2023/09/13 07:15:50;;;;;;;15.00;2.63;;;15.10;99.90;;;;;;5021528;28;20052;-90
2023/09/13 07:18:17;;;;;;;9.82;2.10;;;15.80;99.90;;;;;;5023879;28;20132;-87
2023/09/13 07:20:42;;;;;;;6.97;2.55;;;15.20;99.90;;;;;;5024660;28;20485;-88
2023/09/13 07:23:09;;;;;;;10.95;2.30;;;15.20;99.90;;;;;;5021763;28;20117;-87
2023/09/13 07:25:34;;;;;;;5.53;1.70;;;15.20;99.90;;;;;;5020031;28;20440;-88
2023/09/13 07:28:00;;;;;;;10.32;2.08;;;15.30;99.90;;;;;;5022194;28;20046;-88
2023/09/13 07:30:26;;;;;;;9.27;1.92;;;15.20;99.90;;;;;;5021307;28;20042;-91
2023/09/13 07:32:52;;;;;;;10.45;2.33;;;15.30;99.90;;;;;;5023293;28;20401;-88
2023/09/13 07:35:18;;;;;;;6.15;1.45;;;15.20;99.90;;;;;;5024440;28;20044;-91
2023/09/13 07:37:43;;;;;;;11.30;1.80;;;15.20;99.90;;;;;;5023996;28;20107;-89
2023/09/13 07:40:10;;;;;;;11.27;2.40;;;15.20;99.90;;;;;;5022298;28;20508;-86
2023/09/13 07:42:36;;;;;;;12.23;2.28;;;15.20;99.90;;;;;;5020382;28;20045;-86
2023/09/13 07:45:02;;;;;;;11.07;1.90;;;15.90;99.90;;;;;;5022557;28;20397;-88
2023/09/13 07:47:30;;;;;;;5.97;1.80;;;15.20;99.90;;;;;;5023717;28;20034;-87
2023/09/13 07:49:59;;;;;;;6.07;1.92;;;15.20;99.90;;;;;;5022013;28;20057;-89
2023/09/13 07:52:26;;;;;;;8.85;1.80;;;15.20;99.90;;;;;;5018270;28;20136;-88
2023/09/13 07:54:52;;;;;;;12.10;2.25;;;15.10;99.90;;;;;;5021947;28;20033;-87
2023/09/13 07:57:18;;;;;;;9.95;2.00;;;15.30;99.90;;;;;;5023999;28;20088;-93
2023/09/13 07:59:44;;;;;;;10.50;2.13;;;15.10;99.90;;;;;;5021420;28;20049;-92
2023/09/13 08:02:09;;;;;;;9.52;2.05;;;16.30;99.90;;;;;;5020519;28;20038;-92
2023/09/13 08:04:35;;;;;;;13.65;1.92;;;15.10;99.90;;;;;;5020188;28;20113;-91
2023/09/13 08:07:02;;;;;;;7.68;2.33;;;15.10;99.90;;;;;;5021513;28;20038;-90
2023/09/13 08:09:27;;;;;;;10.93;2.25;;;15.10;99.90;;;;;;5022301;28;20045;-90
2023/09/13 08:11:53;;;;;;;7.47;1.77;;;15.60;99.90;;;;;;5021515;28;20053;-85
2023/09/13 08:14:19;;;;;;;8.35;2.08;;;15.10;99.90;;;;;;5019338;28;20128;-93
2023/09/13 08:16:45;;;;;;;8.00;1.90;;;15.30;99.90;;;;;;5020009;28;20460;-90
2023/09/13 08:19:11;;;;;;;8.38;1.85;;;15.30;99.90;;;;;;5021933;28;20477;-88
2023/09/13 08:21:37;;;;;;;9.05;1.83;;;15.20;99.90;;;;;;5022466;28;20081;-90
2023/09/13 08:24:04;;;;;;;11.07;2.60;;;15.20;99.90;;;;;;5020254;28;20112;-88
2023/09/13 08:26:30;;;;;;;5.95;1.90;;;15.20;99.90;;;;;;5019464;28;20042;-91
2023/09/13 08:28:57;;;;;;;9.35;2.30;;;15.20;99.90;;;;;;5020801;28;20037;-93
2023/09/13 08:31:24;;;;;;;12.38;2.10;;;15.30;99.90;;;;;;5023126;28;20175;-91
2023/09/13 08:33:50;;;;;;;8.98;1.95;;;15.90;99.90;;;;;;5021480;28;20045;-92
2023/09/13 08:36:17;;;;;;;9.82;2.40;;;15.40;99.90;;;;;;5019659;28;20470;-92
2023/09/13 08:38:42;;;;;;;7.55;2.33;;;15.40;99.90;;;;;;5018106;28;20061;-90
2023/09/13 08:41:08;;;;;;;15.40;2.70;;;16.00;99.90;;;;;;5020482;28;20049;-88
2023/09/13 08:43:36;;;;;;;11.43;1.85;;;15.40;99.90;;;;;;5022736;28;20061;-89
2023/09/13 08:46:02;;;;;;;8.30;2.42;;;15.50;99.90;;;;;;5014984;28;20042;-88
2023/09/13 08:48:29;;;;;;;8.05;1.98;;;15.50;99.90;;;;;;5019505;28;20045;-90
2023/09/13 08:50:55;;;;;;;7.40;1.90;;;15.60;99.90;;;;;;5008679;28;20041;-92
2023/09/13 08:53:26;;;;;;;7.95;2.45;;;15.50;99.90;;;;;;4994851;28;20496;-92
2023/09/13 08:55:54;;;;;;;11.88;2.42;;;15.70;99.90;;;;;;5005179;28;20589;-91
2023/09/13 08:58:20;;;;;;;9.90;2.10;;;16.30;99.90;;;;;;4982414;28;20046;-92
2023/09/13 09:00:49;;;;;;;9.93;2.80;;;15.70;99.90;;;;;;4998959;28;20049;-91
2023/09/13 09:03:17;;;;;;;12.10;2.10;;;15.30;99.90;;;;;;4983367;28;20045;-91
2023/09/13 09:05:45;;;;;;;10.98;2.58;;;15.60;99.90;;;;;;4996199;28;20409;-91
2023/09/13 09:08:14;;;;;;;9.60;2.00;;;17.20;99.90;;;;;;4993539;28;20046;-92
2023/09/13 09:10:55;;;;;;;12.57;2.15;;;14.80;99.90;;;;;;5024048;28;20050;-91
2023/09/13 09:13:25;;;;;;;11.80;1.90;;;15.70;99.90;;;;;;5009926;28;20045;-93
2023/09/13 09:15:52;;;;;;;9.48;2.25;;;15.70;99.90;;;;;;4992900;28;20051;-92
2023/09/13 09:18:22;;;;;;;9.45;2.30;;;15.70;99.90;;;;;;5005245;28;20045;-92
2023/09/13 09:20:48;;;;;;;11.93;2.15;;;15.70;99.90;;;;;;5010650;28;20053;-92
2023/09/13 09:23:23;;;;;;;12.40;4.25;;;15.60;99.90;;;;;;5012013;28;20048;-92
2023/09/13 09:25:50;;;;;;;9.25;2.53;;;16.70;99.90;;;;;;4992659;28;20038;-92
2023/09/13 09:28:16;;;;;;;10.02;3.03;;;15.50;99.90;;;;;;5021651;28;20549;-91
2023/09/13 09:30:47;;;;;;;8.65;2.72;;;15.60;99.90;;;;;;5017736;28;20394;-92
2023/09/13 09:33:13;;;;;;;10.40;4.43;;;15.90;99.90;;;;;;5000225;28;20573;-92
2023/09/13 09:35:39;;;;;;;9.13;3.22;;;17.20;99.90;;;;;;5003022;28;20037;-91
2023/09/13 09:38:21;;;;;;;9.07;4.25;;;16.70;99.90;;;;;;5018954;28;20569;-92
2023/09/13 09:40:50;;;;;;;13.27;7.20;;;15.60;99.90;;;;;;5003513;28;20050;-91
2023/09/13 09:43:18;;;;;;;27.48;13.75;;;17.20;99.90;;;;;;5025902;28;20077;-91
2023/09/13 09:45:44;;;;;;;46.53;25.48;;;15.50;99.90;;;;;;5007102;28;20049;-91
2023/09/13 09:48:10;;;;;;;22.42;11.35;;;16.00;99.90;;;;;;4992344;28;20045;-91
2023/09/13 09:50:37;;;;;;;16.70;6.32;;;15.90;99.90;;;;;;4997884;28;20053;-91
2023/09/13 09:53:10;;;;;;;9.20;4.45;;;15.40;99.90;;;;;;5018904;28;20068;-92
2023/09/13 09:55:37;;;;;;;19.93;7.40;;;15.60;99.90;;;;;;5002665;28;20098;-91
2023/09/13 09:58:05;;;;;;;12.52;4.82;;;15.30;99.90;;;;;;5019317;28;20121;-92
2023/09/13 10:00:52;;;;;;;10.85;4.10;;;16.70;99.90;;;;;;5006448;28;20097;-91
2023/09/13 10:03:21;;;;;;;5.93;3.35;;;15.60;99.90;;;;;;5014756;28;20054;-91
2023/09/13 10:06:01;;;;;;;11.07;3.88;;;15.40;99.90;;;;;;5024887;28;20041;-87
2023/09/13 10:08:44;;;;;;;10.48;3.05;;;15.50;99.90;;;;;;5022644;28;20101;-87
2023/09/13 10:11:12;;;;;;;9.80;6.90;;;15.50;99.90;;;;;;5003134;28;20049;-88
2023/09/13 10:13:39;;;;;;;7.30;5.47;;;15.50;99.90;;;;;;5025408;28;20049;-88
2023/09/13 10:16:11;;;;;;;6.75;4.22;;;15.50;99.90;;;;;;5019530;28;20398;-89
2023/09/13 10:18:49;;;;;;;6.80;4.38;;;15.60;99.90;;;;;;5021850;28;20041;-88
2023/09/13 10:21:25;;;;;;;7.15;2.78;;;15.60;99.90;;;;;;5021165;28;20041;-89
2023/09/13 10:24:02;;;;;;;5.03;3.55;;;15.70;99.90;;;;;;5006448;28;20049;-88
2023/09/13 10:26:31;;;;;;;10.80;7.78;;;15.70;99.90;;;;;;5014984;28;20072;-87
2023/09/13 10:29:05;;;;;;;5.00;2.53;;;15.70;99.90;;;;;;5022889;28;20038;-89
2023/09/13 10:31:34;;;;;;;4.75;2.60;;;15.80;99.90;;;;;;5014908;28;20114;-87
2023/09/13 10:38:08;;;;;;;4.72;2.47;;;15.80;99.90;;;;;;5022735;22;20054;-95
2023/09/13 10:41:07;;;;;;;6.25;2.30;;;15.90;99.90;;;;;;5022834;28;20057;-95
2023/09/13 10:43:59;;;;;;;4.88;2.80;;;16.30;99.90;;;;;;5011759;28;20049;-95
2023/09/13 10:46:37;;;;;;;3.83;2.33;;;16.30;99.90;;;;;;5023595;28;20048;-93
2023/09/13 10:49:29;;;;;;;4.68;2.58;;;17.20;99.90;;;;;;5014140;28;20050;-96
2023/09/13 10:52:05;;;;;;;6.30;3.25;;;16.30;99.90;;;;;;5007441;28;20050;-94
2023/09/13 10:54:38;;;;;;;6.88;2.65;;;16.30;99.90;;;;;;5028342;28;20052;-95
2023/09/13 11:01:45;;;;;;;5.70;2.30;;;16.60;99.90;;;;;;4983312;28;20059;-95
2023/09/13 11:04:21;;;;;;;8.10;2.05;;;16.40;99.90;;;;;;5016440;28;20489;-94
2023/09/13 11:07:02;;;;;;;8.05;2.20;;;16.70;99.90;;;;;;5022140;28;20048;-93
2023/09/13 11:13:14;;;;;;;8.60;2.58;;;17.10;99.90;;;;;;5023434;28;20049;-94
2023/09/13 11:15:53;;;;;;;9.52;2.33;;;16.20;99.90;;;;;;5026983;28;20051;-89
2023/09/13 11:18:19;;;;;;;7.35;2.42;;;17.00;99.90;;;;;;5028827;23;20054;-88
2023/09/13 11:20:44;;;;;;;3.65;1.58;;;16.80;99.90;;;;;;5016380;28;20107;-90
2023/09/13 11:23:14;;;;;;;4.53;1.83;;;16.80;99.90;;;;;;5014390;28;20041;-91
2023/09/13 11:25:54;;;;;;;3.85;1.58;;;16.90;99.90;;;;;;5011103;28;20057;-86
2023/09/13 11:28:36;;;;;;;4.97;2.00;;;16.90;99.90;;;;;;5024987;28;20045;-85
2023/09/13 11:31:52;;;;;;;5.35;1.65;;;17.60;99.90;;;;;;5023998;28;20049;-93
2023/09/13 11:34:28;;;;;;;8.93;2.13;;;17.00;99.90;;;;;;5027339;28;20052;-93
2023/09/13 11:37:04;;;;;;;5.75;1.70;;;17.10;99.90;;;;;;5003962;28;20038;-92
2023/09/13 11:39:35;;;;;;;4.97;1.27;;;16.70;99.90;;;;;;5008643;28;20041;-93
2023/09/13 11:42:15;;;;;;;6.22;1.23;;;18.10;99.90;;;;;;5000684;28;20105;-94
2023/09/13 11:44:53;;;;;;;4.20;0.93;;;17.40;99.90;;;;;;5005552;28;20057;-94
2023/09/13 11:47:19;;;;;;;8.65;1.40;;;17.10;99.90;;;;;;5012880;28;20053;-93
2023/09/13 11:49:51;;;;;;;7.00;1.25;;;17.40;99.90;;;;;;5021789;28;20581;-94
2023/09/13 11:52:24;;;;;;;6.25;1.70;;;17.20;99.90;;;;;;5004016;28;20056;-93
2023/09/13 11:54:59;;;;;;;6.00;1.48;;;17.40;99.90;;;;;;5029092;28;20041;-88
2023/09/13 11:57:51;;;;;;;3.25;1.17;;;17.40;99.90;;;;;;5024788;28;20053;-84
2023/09/13 12:00:22;;;;;;;6.22;1.60;;;17.30;99.90;;;;;;4672302;28;10000904;-84
2023/09/13 12:02:47;;;;;;;3.45;1.17;;;17.30;99.90;;;;;;5015260;28;20474;-87
2023/09/13 12:05:15;;;;;;;5.05;1.58;;;17.30;99.90;;;;;;5013705;28;20056;-85
2023/09/13 12:07:41;;;;;;;6.43;1.45;;;17.20;99.90;;;;;;5023288;28;20081;-84
2023/09/13 12:10:06;;;;;;;4.90;1.17;;;17.10;99.90;;;;;;5025611;28;20057;-85
2023/09/13 12:12:42;;;;;;;5.20;1.20;;;17.00;99.90;;;;;;5027127;28;20393;-84
2023/09/13 12:15:14;;;;;;;8.55;1.90;;;17.00;99.90;;;;;;5027850;28;20065;-86
2023/09/13 12:17:40;;;;;;;5.10;1.77;;;17.00;99.90;;;;;;5008865;28;20564;-84
2023/09/13 12:20:14;;;;;;;4.07;1.13;;;16.80;99.90;;;;;;5015868;28;20128;-85
2023/09/13 12:22:43;;;;;;;8.07;1.50;;;16.70;99.90;;;;;;5013208;28;20125;-87
2023/09/13 12:25:13;;;;;;;3.75;1.40;;;16.70;99.90;;;;;;5024167;28;20033;-86
2023/09/13 12:27:40;;;;;;;4.85;1.30;;;16.70;99.90;;;;;;5023894;28;20124;-87
2023/09/13 12:30:07;;;;;;;8.00;1.75;;;16.70;99.90;;;;;;5025290;28;20102;-86
2023/09/13 12:32:33;;;;;;;8.02;1.50;;;16.70;99.90;;;;;;5021493;28;20130;-87
2023/09/13 12:35:03;;;;;;;8.18;1.70;;;17.40;99.90;;;;;;5020253;28;20038;-86
2023/09/13 12:37:28;;;;;;;10.38;1.95;;;16.90;99.90;;;;;;5025801;28;20045;-85
2023/09/13 12:39:57;;;;;;;5.70;1.38;;;17.10;99.90;;;;;;5016667;28;20056;-86
2023/09/13 12:42:23;;;;;;;5.43;1.38;;;17.10;99.90;;;;;;5017267;28;20141;-88
2023/09/13 12:44:48;;;;;;;8.85;1.60;;;17.10;99.90;;;;;;5002273;28;20553;-87
2023/09/13 12:47:17;;;;;;;9.77;1.52;;;17.00;99.90;;;;;;5000406;28;20033;-89
2023/09/13 12:49:43;;;;;;;8.25;1.30;;;17.10;99.90;;;;;;5011547;28;20095;-89
2023/09/13 12:52:09;;;;;;;8.20;2.03;;;16.80;99.90;;;;;;5027815;28;20041;-89
2023/09/13 12:54:40;;;;;;;10.43;2.15;;;17.30;99.90;;;;;;5020631;28;20041;-88
2023/09/13 12:57:06;;;;;;;6.10;1.35;;;16.60;99.90;;;;;;5020127;28;20132;-88
2023/09/13 12:59:45;;;;;;;3.85;1.13;;;16.50;99.90;;;;;;5023126;28;20567;-87
2023/09/13 13:02:18;;;;;;;11.10;2.00;;;16.40;99.90;;;;;;5021448;28;20057;-87
2023/09/13 13:04:44;;;;;;;6.63;1.25;;;16.40;99.90;;;;;;5012424;28;20092;-86